Detall de PIREP

Printer-friendly versionPDF version

[2013/10/03 06:55:00]
Flight IATA:CT3218
Pilot Number:012
Company ICAO:CAT
Aircraft Type:B763/F
PAX:263
Departing Airport: LEPA
Destination Airport: EFHK
Alternate Airport:EETN
Online: VATSIM
Route:MEROS/M083F380 UN853 MOBLO UZ662 LAMUR UZ67 KORED UN871 DITON T163 ZUE T125 ROMIR UN851 LOHRE/M083F390 UN746 BINKA N746 ALAMI P606 PEXEN
Flight Level:F390
No Slew and time accel
No pause
Crash detect
Detect pilot in Cockpit between each 30 and 45 minutes
06:55 Zero fuel Weight: 249034 Lbs, Fuel Weight: 54495 Lbs
06:55 VATSIM:LEPA 030630Z 05009KT 9999 FEW015 23/21 Q1011 NOSIG
06:55 VATSIM:EFHK 030620Z 23005KT CAVOK 05/03 Q1029 NOSIG
06:55 VOICE CATALONIAN
07:02 Parking Brakes off
07:09 Take-off
07:09 Take off Weight: 301246 Lbs
07:09 Wind: 049º @ 009 Knots Heading: 058º
07:09 POS N39º 32´ 54´´ E002º 44´ 49´´
07:09 Gear Up: 183 Knots
07:09 Flaps:2 at 183 Knots
07:10 Flaps:1 at 191 Knots
07:10 Flaps:0 at 211 Knots
07:24 Wind:231º@042 Knots Heading: 008º Ground Speed: 498 Knots Altitude 34619 ft
07:39 Wind:249º@044 Knots Heading: 029º Ground Speed: 502 Knots Altitude 38116 ft
07:54 Wind:266º@047 Knots Heading: 021º Ground Speed: 488 Knots Altitude 38143 ft
08:09 Wind:270º@054 Knots Heading: 023º Ground Speed: 488 Knots Altitude 38188 ft
08:24 Wind:285º@071 Knots Heading: 021º Ground Speed: 477 Knots Altitude 38175 ft
08:39 Wind:293º@062 Knots Heading: 023º Ground Speed: 466 Knots Altitude 38261 ft
08:45 TOC
08:45 Fuel Weight: 32570 Lb
08:54 Wind:306º@043 Knots Heading: 026º Ground Speed: 450 Knots Altitude 39366 ft
09:09 Wind:313º@020 Knots Heading: 031º Ground Speed: 456 Knots Altitude 39501 ft
09:24 Wind:346º@018 Knots Heading: 022º Ground Speed: 452 Knots Altitude 39543 ft
09:39 Wind:012º@012 Knots Heading: 030º Ground Speed: 457 Knots Altitude 39580 ft
09:54 Wind:022º@024 Knots Heading: 034º Ground Speed: 447 Knots Altitude 39580 ft
10:09 Wind:028º@037 Knots Heading: 037º Ground Speed: 434 Knots Altitude 39524 ft
10:12 TOD
10:12 Fuel Weight: 18413 Lb
10:24 Wind:341º@008 Knots Heading: 060º Ground Speed: 355 Knots Altitude 12148 ft
10:34 Flaps:1 at 220 Knots
10:37 Flaps:2 at 227 Knots
10:39 Wind:261º@008 Knots Heading: 157º Ground Speed: 230 Knots Altitude 1998 ft
10:39 Gear Down: 221 Knots
10:39 Flaps:3 at 233 Knots
10:40 Flaps:4 at 156 Knots
10:40 Flaps:5 at 156 Knots
10:41 Flaps:6 at 156 Knots
10:42 TouchDown:Rate -273 ft/min Speed: 123 Knots
10:42 VATSIM:EFHK 031020Z 23007KT CAVOK 12/03 Q1029 NOSIG
10:42 Land
10:42 Wind:261º@008 Knots
10:42 Heading: 154º
10:42 Flight Duration: 03:33
10:42 Landing Weight: 263955 Lbs
10:42 POS N60º 19´ 08´´ E024º 58´ 33´´
10:48 Parking brakes on
10:48 Block to Block Duration: 03:46
10:48 Final Fuel: 13787 Lbls
10:48 Spent Fuel: 40707 Lbls
10:48 Flight Length: 1566 NM
10:48 TOD Land Length: 156 NM

Exportar CSV

Powered by Drupal - Modified by Danger4k